sensor_id;sensor_type;location;lat;lon;timestamp;pressure;altitude;pressure_sealevel;temperature;humidity
10464;BME280;5279;42.048;24.638;2022-10-30T00:00:51;98167.94;;;13.14;53.59
10464;BME280;5279;42.048;24.638;2022-10-30T00:03:18;98164.44;;;13.04;54.49
10464;BME280;5279;42.048;24.638;2022-10-30T00:05:46;98169.19;;;13.10;54.59
10464;BME280;5279;42.048;24.638;2022-10-30T00:08:15;98148.47;;;13.04;54.94
10464;BME280;5279;42.048;24.638;2022-10-30T00:10:44;98139.25;;;13.08;55.03
10464;BME280;5279;42.048;24.638;2022-10-30T00:13:12;98158.56;;;13.10;55.54
10464;BME280;5279;42.048;24.638;2022-10-30T00:15:45;98160.75;;;13.25;55.18
10464;BME280;5279;42.048;24.638;2022-10-30T00:18:13;98154.53;;;13.34;55.08
10464;BME280;5279;42.048;24.638;2022-10-30T00:20:39;98155.22;;;13.36;54.58
10464;BME280;5279;42.048;24.638;2022-10-30T00:23:06;98153.94;;;13.40;54.77
10464;BME280;5279;42.048;24.638;2022-10-30T00:25:33;98150.34;;;13.31;54.50
10464;BME280;5279;42.048;24.638;2022-10-30T00:28:02;98145.91;;;13.22;55.19
10464;BME280;5279;42.048;24.638;2022-10-30T00:30:29;98140.44;;;13.24;55.26
10464;BME280;5279;42.048;24.638;2022-10-30T00:32:56;98158.22;;;13.23;55.55
10464;BME280;5279;42.048;24.638;2022-10-30T00:35:23;98139.25;;;13.36;55.65
10464;BME280;5279;42.048;24.638;2022-10-30T00:37:50;98135.19;;;13.32;55.81
10464;BME280;5279;42.048;24.638;2022-10-30T00:40:17;98131.94;;;13.38;55.73
10464;BME280;5279;42.048;24.638;2022-10-30T00:42:44;98129.28;;;13.38;55.99
10464;BME280;5279;42.048;24.638;2022-10-30T00:45:14;98125.94;;;13.36;56.20
10464;BME280;5279;42.048;24.638;2022-10-30T00:47:43;98108.06;;;13.28;56.44
10464;BME280;5279;42.048;24.638;2022-10-30T00:50:13;98116.97;;;13.37;56.14
10464;BME280;5279;42.048;24.638;2022-10-30T00:52:46;98110.63;;;13.38;56.13
10464;BME280;5279;42.048;24.638;2022-10-30T00:55:17;98108.28;;;13.35;56.55
10464;BME280;5279;42.048;24.638;2022-10-30T00:57:46;98111.66;;;13.37;56.38
10464;BME280;5279;42.048;24.638;2022-10-30T01:00:18;98105.31;;;13.38;56.35
10464;BME280;5279;42.048;24.638;2022-10-30T01:02:46;98109.28;;;13.34;56.72
10464;BME280;5279;42.048;24.638;2022-10-30T01:05:15;98106.63;;;13.34;56.74
10464;BME280;5279;42.048;24.638;2022-10-30T01:07:43;98099.63;;;13.33;56.57
10464;BME280;5279;42.048;24.638;2022-10-30T01:10:10;98104.88;;;13.42;56.51
10464;BME280;5279;42.048;24.638;2022-10-30T01:12:38;98105.44;;;13.46;56.56
10464;BME280;5279;42.048;24.638;2022-10-30T01:15:06;98100.25;;;13.44;56.94
10464;BME280;5279;42.048;24.638;2022-10-30T01:21:08;98101.97;;;13.36;57.54
10464;BME280;5279;42.048;24.638;2022-10-30T01:23:47;98095.38;;;13.40;57.52
10464;BME280;5279;42.048;24.638;2022-10-30T01:26:25;98097.03;;;13.41;57.22
10464;BME280;5279;42.048;24.638;2022-10-30T01:29:05;98095.69;;;13.37;57.64
10464;BME280;5279;42.048;24.638;2022-10-30T01:31:43;98089.28;;;13.30;58.00
10464;BME280;5279;42.048;24.638;2022-10-30T01:34:27;98081.25;;;13.12;58.77
10464;BME280;5279;42.048;24.638;2022-10-30T01:37:02;98089.81;;;13.06;58.74
10464;BME280;5279;42.048;24.638;2022-10-30T01:39:34;98093.59;;;13.03;59.48
10464;BME280;5279;42.048;24.638;2022-10-30T01:42:08;98075.28;;;13.00;59.84
10464;BME280;5279;42.048;24.638;2022-10-30T01:44:36;98084.06;;;13.10;59.94
10464;BME280;5279;42.048;24.638;2022-10-30T01:47:13;98072.44;;;13.11;59.71
10464;BME280;5279;42.048;24.638;2022-10-30T01:50:01;98076.63;;;13.14;60.12
10464;BME280;5279;42.048;24.638;2022-10-30T01:52:39;98077.91;;;13.10;60.56
10464;BME280;5279;42.048;24.638;2022-10-30T01:55:17;98073.59;;;13.27;60.43
10464;BME280;5279;42.048;24.638;2022-10-30T01:57:53;98063.56;;;13.21;60.69
10464;BME280;5279;42.048;24.638;2022-10-30T02:00:21;98069.66;;;13.31;61.21
10464;BME280;5279;42.048;24.638;2022-10-30T02:02:49;98070.50;;;13.31;61.26
10464;BME280;5279;42.048;24.638;2022-10-30T02:05:20;98070.41;;;13.41;61.52
10464;BME280;5279;42.048;24.638;2022-10-30T02:07:53;98063.69;;;13.46;61.31
10464;BME280;5279;42.048;24.638;2022-10-30T02:10:20;98067.78;;;13.58;61.31
10464;BME280;5279;42.048;24.638;2022-10-30T02:12:47;98057.66;;;13.62;60.86
10464;BME280;5279;42.048;24.638;2022-10-30T02:15:15;98057.34;;;13.65;60.53
10464;BME280;5279;42.048;24.638;2022-10-30T02:17:42;98058.63;;;13.79;60.10
10464;BME280;5279;42.048;24.638;2022-10-30T02:20:15;98055.81;;;13.80;60.15
10464;BME280;5279;42.048;24.638;2022-10-30T02:22:42;98049.13;;;13.76;60.60
10464;BME280;5279;42.048;24.638;2022-10-30T02:25:09;98049.44;;;13.73;60.52
10464;BME280;5279;42.048;24.638;2022-10-30T02:27:36;98049.44;;;13.73;60.60
10464;BME280;5279;42.048;24.638;2022-10-30T02:30:03;98042.50;;;13.80;60.46
10464;BME280;5279;42.048;24.638;2022-10-30T02:32:30;98041.13;;;13.76;60.40
10464;BME280;5279;42.048;24.638;2022-10-30T02:34:57;98038.47;;;13.76;60.81
10464;BME280;5279;42.048;24.638;2022-10-30T02:37:26;98048.53;;;13.82;60.35
10464;BME280;5279;42.048;24.638;2022-10-30T02:39:53;98047.75;;;13.72;61.24
10464;BME280;5279;42.048;24.638;2022-10-30T02:42:19;98048.38;;;13.66;60.99
10464;BME280;5279;42.048;24.638;2022-10-30T02:44:47;98053.03;;;13.64;61.42
10464;BME280;5279;42.048;24.638;2022-10-30T02:47:15;98041.06;;;13.68;61.07
10464;BME280;5279;42.048;24.638;2022-10-30T02:49:41;98039.09;;;13.70;61.10
10464;BME280;5279;42.048;24.638;2022-10-30T02:52:08;98045.41;;;13.69;61.47
10464;BME280;5279;42.048;24.638;2022-10-30T02:54:36;98041.06;;;13.68;61.61
10464;BME280;5279;42.048;24.638;2022-10-30T02:57:03;98035.41;;;13.71;61.50
10464;BME280;5279;42.048;24.638;2022-10-30T02:59:30;98046.25;;;13.69;61.72
10464;BME280;5279;42.048;24.638;2022-10-30T03:01:57;98040.06;;;13.69;61.75
10464;BME280;5279;42.048;24.638;2022-10-30T03:04:24;98041.06;;;13.68;61.94
10464;BME280;5279;42.048;24.638;2022-10-30T03:06:51;98043.03;;;13.66;61.73
10464;BME280;5279;42.048;24.638;2022-10-30T03:09:18;98039.00;;;13.62;61.31
10464;BME280;5279;42.048;24.638;2022-10-30T03:11:46;98043.03;;;13.66;62.17
10464;BME280;5279;42.048;24.638;2022-10-30T03:14:13;98031.31;;;13.59;62.14
10464;BME280;5279;42.048;24.638;2022-10-30T03:16:40;98038.94;;;13.54;62.29
10464;BME280;5279;42.048;24.638;2022-10-30T03:19:07;98033.53;;;13.63;62.57
10464;BME280;5279;42.048;24.638;2022-10-30T03:21:34;98030.72;;;13.65;62.55
10464;BME280;5279;42.048;24.638;2022-10-30T03:24:01;98035.66;;;13.60;63.00
10464;BME280;5279;42.048;24.638;2022-10-30T03:26:28;98034.47;;;13.54;62.21
10464;BME280;5279;42.048;24.638;2022-10-30T03:28:56;98028.53;;;13.60;61.87
10464;BME280;5279;42.048;24.638;2022-10-30T03:31:23;98030.66;;;13.39;62.56
10464;BME280;5279;42.048;24.638;2022-10-30T03:33:50;98039.84;;;13.45;62.38
10464;BME280;5279;42.048;24.638;2022-10-30T03:36:17;98047.28;;;13.59;62.29
10464;BME280;5279;42.048;24.638;2022-10-30T03:38:44;98032.16;;;13.59;62.84
10464;BME280;5279;42.048;24.638;2022-10-30T03:41:11;98039.84;;;13.45;63.45
10464;BME280;5279;42.048;24.638;2022-10-30T03:43:38;98048.69;;;13.45;64.76
10464;BME280;5279;42.048;24.638;2022-10-30T03:46:07;98035.13;;;13.39;64.45
10464;BME280;5279;42.048;24.638;2022-10-30T03:48:35;98039.91;;;13.35;63.17
10464;BME280;5279;42.048;24.638;2022-10-30T03:51:01;98042.28;;;13.38;62.34
10464;BME280;5279;42.048;24.638;2022-10-30T03:53:29;98035.91;;;13.49;62.75
10464;BME280;5279;42.048;24.638;2022-10-30T03:55:57;98046.78;;;13.55;61.86
10464;BME280;5279;42.048;24.638;2022-10-30T03:58:25;98035.28;;;13.55;61.82
10464;BME280;5279;42.048;24.638;2022-10-30T04:00:52;98042.19;;;13.65;61.28
10464;BME280;5279;42.048;24.638;2022-10-30T04:03:20;98044.72;;;13.67;61.27
10464;BME280;5279;42.048;24.638;2022-10-30T04:05:47;98040.00;;;13.61;61.43
10464;BME280;5279;42.048;24.638;2022-10-30T04:08:16;98043.97;;;13.57;61.27
10464;BME280;5279;42.048;24.638;2022-10-30T04:10:43;98039.41;;;13.67;61.34
10464;BME280;5279;42.048;24.638;2022-10-30T04:13:12;98051.41;;;13.71;59.74
10464;BME280;5279;42.048;24.638;2022-10-30T04:15:40;98048.06;;;13.69;60.65
10464;BME280;5279;42.048;24.638;2022-10-30T04:18:09;98050.59;;;13.71;60.10
10464;BME280;5279;42.048;24.638;2022-10-30T04:20:38;98045.56;;;13.67;59.00
10464;BME280;5279;42.048;24.638;2022-10-30T04:23:06;98046.19;;;13.61;59.00
10464;BME280;5279;42.048;24.638;2022-10-30T04:25:34;98047.53;;;13.65;59.01
10464;BME280;5279;42.048;24.638;2022-10-30T04:28:02;98057.34;;;13.65;59.08
10464;BME280;5279;42.048;24.638;2022-10-30T04:30:29;98060.16;;;13.63;60.44
10464;BME280;5279;42.048;24.638;2022-10-30T04:33:00;98066.03;;;13.49;60.16
10464;BME280;5279;42.048;24.638;2022-10-30T04:35:29;98058.84;;;13.50;58.73
10464;BME280;5279;42.048;24.638;2022-10-30T04:37:58;98055.69;;;13.46;61.20
10464;BME280;5279;42.048;24.638;2022-10-30T04:40:27;98057.03;;;13.33;62.75
10464;BME280;5279;42.048;24.638;2022-10-30T04:42:54;98063.56;;;13.21;63.65
10464;BME280;5279;42.048;24.638;2022-10-30T04:45:21;98067.19;;;13.20;63.51
10464;BME280;5279;42.048;24.638;2022-10-30T04:47:48;98065.53;;;13.19;63.20
10464;BME280;5279;42.048;24.638;2022-10-30T04:50:16;98057.44;;;13.10;63.25
10464;BME280;5279;42.048;24.638;2022-10-30T04:52:43;98058.84;;;13.05;63.97
10464;BME280;5279;42.048;24.638;2022-10-30T04:55:12;98069.78;;;13.11;62.80
10464;BME280;5279;42.048;24.638;2022-10-30T04:57:39;98060.50;;;13.16;62.56
10464;BME280;5279;42.048;24.638;2022-10-30T05:00:07;98060.66;;;12.77;63.88
10464;BME280;5279;42.048;24.638;2022-10-30T05:02:34;98055.00;;;12.90;62.81
10464;BME280;5279;42.048;24.638;2022-10-30T05:05:02;98064.25;;;12.86;61.33
10464;BME280;5279;42.048;24.638;2022-10-30T05:07:29;98066.59;;;12.98;62.05
10464;BME280;5279;42.048;24.638;2022-10-30T05:09:56;98063.31;;;13.04;57.97
10464;BME280;5279;42.048;24.638;2022-10-30T05:12:25;98061.13;;;13.09;59.08
10464;BME280;5279;42.048;24.638;2022-10-30T05:14:52;98068.28;;;13.27;58.29
10464;BME280;5279;42.048;24.638;2022-10-30T05:17:19;98074.63;;;13.43;57.56
10464;BME280;5279;42.048;24.638;2022-10-30T05:19:46;98074.47;;;13.62;54.52
10464;BME280;5279;42.048;24.638;2022-10-30T05:22:13;98068.69;;;13.85;53.23
10464;BME280;5279;42.048;24.638;2022-10-30T05:24:40;98056.31;;;14.01;52.60
10464;BME280;5279;42.048;24.638;2022-10-30T05:27:07;98071.88;;;14.32;51.44
10464;BME280;5279;42.048;24.638;2022-10-30T05:29:35;98062.34;;;14.47;49.78
10464;BME280;5279;42.048;24.638;2022-10-30T05:32:02;98064.25;;;14.62;49.66
10464;BME280;5279;42.048;24.638;2022-10-30T05:34:29;98067.19;;;14.77;48.83
10464;BME280;5279;42.048;24.638;2022-10-30T05:36:56;98065.84;;;14.81;47.74
10464;BME280;5279;42.048;24.638;2022-10-30T05:39:23;98066.53;;;14.83;47.55
10464;BME280;5279;42.048;24.638;2022-10-30T05:41:50;98072.25;;;14.96;46.92
10464;BME280;5279;42.048;24.638;2022-10-30T05:44:16;98062.97;;;15.08;47.00
10464;BME280;5279;42.048;24.638;2022-10-30T05:46:45;98060.16;;;15.18;46.38
10464;BME280;5279;42.048;24.638;2022-10-30T05:49:12;98055.84;;;15.25;46.12
10464;BME280;5279;42.048;24.638;2022-10-30T05:51:38;98069.34;;;15.23;46.13
10464;BME280;5279;42.048;24.638;2022-10-30T05:54:05;98065.03;;;15.30;45.23
10464;BME280;5279;42.048;24.638;2022-10-30T05:56:32;98077.75;;;15.45;44.35
10464;BME280;5279;42.048;24.638;2022-10-30T05:58:59;98067.13;;;15.61;45.13
10464;BME280;5279;42.048;24.638;2022-10-30T06:01:26;98080.84;;;15.82;43.73
10464;BME280;5279;42.048;24.638;2022-10-30T06:03:54;98069.16;;;15.91;43.29
10464;BME280;5279;42.048;24.638;2022-10-30T06:06:21;98063.31;;;16.04;43.09
10464;BME280;5279;42.048;24.638;2022-10-30T06:08:48;98076.84;;;16.34;41.96
10464;BME280;5279;42.048;24.638;2022-10-30T06:11:15;98079.16;;;16.46;41.56
10464;BME280;5279;42.048;24.638;2022-10-30T06:13:42;98070.47;;;16.60;41.12
10464;BME280;5279;42.048;24.638;2022-10-30T06:16:09;98069.75;;;16.82;41.09
10464;BME280;5279;42.048;24.638;2022-10-30T06:18:36;98072.06;;;16.93;40.12
10464;BME280;5279;42.048;24.638;2022-10-30T06:21:05;98074.16;;;17.14;39.75
10464;BME280;5279;42.048;24.638;2022-10-30T06:23:32;98087.63;;;17.28;39.20
10464;BME280;5279;42.048;24.638;2022-10-30T06:25:59;98068.44;;;17.47;39.64
10464;BME280;5279;42.048;24.638;2022-10-30T06:28:26;98073.38;;;17.67;38.93
10464;BME280;5279;42.048;24.638;2022-10-30T06:30:53;98078.44;;;17.84;38.62
10464;BME280;5279;42.048;24.638;2022-10-30T06:33:20;98083.94;;;18.14;38.15
10464;BME280;5279;42.048;24.638;2022-10-30T06:35:48;98063.72;;;18.03;37.89
10464;BME280;5279;42.048;24.638;2022-10-30T06:38:16;98065.75;;;18.01;38.32
10464;BME280;5279;42.048;24.638;2022-10-30T06:40:43;98062.94;;;18.17;38.38
10464;BME280;5279;42.048;24.638;2022-10-30T06:43:10;98058.84;;;18.21;37.59
10464;BME280;5279;42.048;24.638;2022-10-30T06:45:37;98047.03;;;18.30;37.83
10464;BME280;5279;42.048;24.638;2022-10-30T06:48:04;98054.88;;;18.54;37.30
10464;BME280;5279;42.048;24.638;2022-10-30T06:50:31;98047.31;;;18.73;37.06
10464;BME280;5279;42.048;24.638;2022-10-30T06:52:58;98048.25;;;18.80;36.45
10464;BME280;5279;42.048;24.638;2022-10-30T06:55:27;98042.97;;;18.72;36.19
10464;BME280;5279;42.048;24.638;2022-10-30T06:57:54;98045.81;;;18.85;36.26
10464;BME280;5279;42.048;24.638;2022-10-30T07:00:21;98040.81;;;18.82;35.95
10464;BME280;5279;42.048;24.638;2022-10-30T07:02:58;98041.66;;;19.12;36.23
10464;BME280;5279;42.048;24.638;2022-10-30T07:05:26;98046.16;;;19.40;36.08
10464;BME280;5279;42.048;24.638;2022-10-30T07:07:55;98045.81;;;19.86;35.31
10464;BME280;5279;42.048;24.638;2022-10-30T07:10:22;98040.03;;;20.31;34.65
10464;BME280;5279;42.048;24.638;2022-10-30T07:12:54;98038.00;;;20.67;34.64
10464;BME280;5279;42.048;24.638;2022-10-30T07:15:23;98035.94;;;20.97;33.53
10464;BME280;5279;42.048;24.638;2022-10-30T07:17:52;98033.44;;;21.37;33.87
10464;BME280;5279;42.048;24.638;2022-10-30T07:20:19;98027.81;;;21.38;36.13
10464;BME280;5279;42.048;24.638;2022-10-30T07:22:46;98039.97;;;21.14;35.67
10464;BME280;5279;42.048;24.638;2022-10-30T07:25:13;98029.84;;;20.89;36.42
10464;BME280;5279;42.048;24.638;2022-10-30T07:27:41;98023.84;;;20.87;37.55
10464;BME280;5279;42.048;24.638;2022-10-30T07:30:11;98019.94;;;20.96;37.81
10464;BME280;5279;42.048;24.638;2022-10-30T07:32:38;98023.09;;;21.06;37.50
10464;BME280;5279;42.048;24.638;2022-10-30T07:35:05;98023.09;;;21.06;37.46
10464;BME280;5279;42.048;24.638;2022-10-30T07:37:33;98018.91;;;20.97;38.24
10464;BME280;5279;42.048;24.638;2022-10-30T07:40:00;98011.84;;;20.96;37.61
10464;BME280;5279;42.048;24.638;2022-10-30T07:42:27;98001.63;;;21.12;37.40
10464;BME280;5279;42.048;24.638;2022-10-30T07:44:54;98010.78;;;21.24;37.09
10464;BME280;5279;42.048;24.638;2022-10-30T07:47:22;98008.28;;;21.23;37.53
10464;BME280;5279;42.048;24.638;2022-10-30T07:49:49;98009.06;;;21.17;37.61
10464;BME280;5279;42.048;24.638;2022-10-30T07:52:16;98008.69;;;21.20;37.16
10464;BME280;5279;42.048;24.638;2022-10-30T07:54:43;98001.66;;;21.32;37.25
10464;BME280;5279;42.048;24.638;2022-10-30T07:57:09;97999.09;;;21.11;37.15
10464;BME280;5279;42.048;24.638;2022-10-30T07:59:36;98001.06;;;21.30;37.06
10464;BME280;5279;42.048;24.638;2022-10-30T08:02:03;98009.16;;;21.43;36.34
10464;BME280;5279;42.048;24.638;2022-10-30T08:04:31;98000.91;;;21.64;36.71
10464;BME280;5279;42.048;24.638;2022-10-30T08:06:58;97998.63;;;21.61;36.35
10464;BME280;5279;42.048;24.638;2022-10-30T08:09:25;97993.06;;;21.69;35.56
10464;BME280;5279;42.048;24.638;2022-10-30T08:11:52;97990.41;;;22.09;35.19
10464;BME280;5279;42.048;24.638;2022-10-30T08:14:19;97990.84;;;22.19;34.82
10464;BME280;5279;42.048;24.638;2022-10-30T08:16:46;97985.22;;;22.40;34.62
10464;BME280;5279;42.048;24.638;2022-10-30T08:19:13;97982.50;;;22.33;34.34
10464;BME280;5279;42.048;24.638;2022-10-30T08:21:41;97979.75;;;22.73;33.91
10464;BME280;5279;42.048;24.638;2022-10-30T08:24:08;97978.06;;;22.78;33.97
10464;BME280;5279;42.048;24.638;2022-10-30T08:26:35;97978.84;;;22.92;33.82
10464;BME280;5279;42.048;24.638;2022-10-30T08:29:02;97975.22;;;23.18;33.34
10464;BME280;5279;42.048;24.638;2022-10-30T08:31:29;97970.53;;;23.38;32.66
10464;BME280;5279;42.048;24.638;2022-10-30T08:33:56;97973.22;;;23.82;32.24
10464;BME280;5279;42.048;24.638;2022-10-30T08:36:23;97969.50;;;24.02;31.80
10464;BME280;5279;42.048;24.638;2022-10-30T08:38:51;97974.09;;;24.26;31.61
10464;BME280;5279;42.048;24.638;2022-10-30T08:41:18;97960.16;;;24.47;30.91
10464;BME280;5279;42.048;24.638;2022-10-30T08:43:45;97972.56;;;25.45;29.79
10464;BME280;5279;42.048;24.638;2022-10-30T08:46:12;97967.38;;;26.27;28.85
10464;BME280;5279;42.048;24.638;2022-10-30T08:48:40;97965.75;;;27.24;27.58
10464;BME280;5279;42.048;24.638;2022-10-30T08:51:07;97957.34;;;27.98;26.17
10464;BME280;5279;42.048;24.638;2022-10-30T08:53:34;97961.50;;;28.67;25.17
10464;BME280;5279;42.048;24.638;2022-10-30T08:56:02;97966.13;;;29.27;24.49
10464;BME280;5279;42.048;24.638;2022-10-30T08:58:29;97959.97;;;30.22;24.01
10464;BME280;5279;42.048;24.638;2022-10-30T09:00:56;97953.47;;;31.07;23.03
10464;BME280;5279;42.048;24.638;2022-10-30T09:03:23;97955.88;;;31.55;21.69
10464;BME280;5279;42.048;24.638;2022-10-30T09:05:50;97957.25;;;31.83;21.71
10464;BME280;5279;42.048;24.638;2022-10-30T09:08:17;97948.00;;;32.24;20.77
10464;BME280;5279;42.048;24.638;2022-10-30T09:10:44;97951.28;;;32.57;20.92
10464;BME280;5279;42.048;24.638;2022-10-30T09:13:12;97947.72;;;32.56;21.16
10464;BME280;5279;42.048;24.638;2022-10-30T09:15:39;97949.56;;;32.81;21.03
10464;BME280;5279;42.048;24.638;2022-10-30T09:18:06;97940.50;;;33.54;20.36
10464;BME280;5279;42.048;24.638;2022-10-30T09:20:33;97941.53;;;33.74;19.55
10464;BME280;5279;42.048;24.638;2022-10-30T09:23:00;97941.41;;;34.28;19.21
10464;BME280;5279;42.048;24.638;2022-10-30T09:25:26;97948.63;;;33.80;19.24
10464;BME280;5279;42.048;24.638;2022-10-30T09:27:53;97926.97;;;34.02;18.93
10464;BME280;5279;42.048;24.638;2022-10-30T09:30:22;97929.22;;;33.61;19.30
10464;BME280;5279;42.048;24.638;2022-10-30T09:32:53;97943.22;;;34.37;18.99
10464;BME280;5279;42.048;24.638;2022-10-30T09:35:20;97937.41;;;34.73;18.50
10464;BME280;5279;42.048;24.638;2022-10-30T09:37:47;97924.25;;;35.54;17.83
10464;BME280;5279;42.048;24.638;2022-10-30T09:40:21;97914.34;;;35.35;17.88
10464;BME280;5279;42.048;24.638;2022-10-30T09:42:49;97915.53;;;36.03;17.18
10464;BME280;5279;42.048;24.638;2022-10-30T09:45:33;97903.00;;;36.43;16.68
10464;BME280;5279;42.048;24.638;2022-10-30T09:48:38;97901.72;;;36.82;16.62
10464;BME280;5279;42.048;24.638;2022-10-30T09:51:20;97899.44;;;37.02;16.28
10464;BME280;5279;42.048;24.638;2022-10-30T09:53:56;97896.69;;;37.38;15.29
10464;BME280;5279;42.048;24.638;2022-10-30T09:56:31;97889.41;;;37.92;15.58
10464;BME280;5279;42.048;24.638;2022-10-30T09:59:07;97876.34;;;38.06;14.92
10464;BME280;5279;42.048;24.638;2022-10-30T10:01:50;97881.63;;;37.94;15.25
10464;BME280;5279;42.048;24.638;2022-10-30T10:04:23;97879.19;;;38.23;14.78
10464;BME280;5279;42.048;24.638;2022-10-30T10:06:55;97874.97;;;38.48;14.16
10464;BME280;5279;42.048;24.638;2022-10-30T10:09:27;97866.06;;;38.59;14.60
10464;BME280;5279;42.048;24.638;2022-10-30T10:11:58;97852.38;;;39.11;13.78
10464;BME280;5279;42.048;24.638;2022-10-30T10:14:29;97872.91;;;39.66;13.49
10464;BME280;5279;42.048;24.638;2022-10-30T10:17:01;97859.97;;;39.88;13.24
10464;BME280;5279;42.048;24.638;2022-10-30T10:19:32;97857.53;;;39.77;12.93
10464;BME280;5279;42.048;24.638;2022-10-30T10:22:02;97844.28;;;40.17;12.77
10464;BME280;5279;42.048;24.638;2022-10-30T10:24:33;97853.75;;;40.71;12.72
10464;BME280;5279;42.048;24.638;2022-10-30T10:27:09;97851.28;;;41.08;12.65
10464;BME280;5279;42.048;24.638;2022-10-30T10:29:51;97848.66;;;41.32;12.17
10464;BME280;5279;42.048;24.638;2022-10-30T10:32:45;97852.50;;;41.48;12.29
10464;BME280;5279;42.048;24.638;2022-10-30T10:35:29;97847.69;;;41.36;11.73
10464;BME280;5279;42.048;24.638;2022-10-30T10:38:07;97839.66;;;41.35;12.39
10464;BME280;5279;42.048;24.638;2022-10-30T10:40:44;97842.72;;;40.83;11.65
10464;BME280;5279;42.048;24.638;2022-10-30T10:43:21;97832.78;;;41.12;11.72
10464;BME280;5279;42.048;24.638;2022-10-30T10:45:57;97832.22;;;41.89;10.76
10464;BME280;5279;42.048;24.638;2022-10-30T10:48:45;97828.59;;;41.47;10.73
10464;BME280;5279;42.048;24.638;2022-10-30T10:51:19;97795.00;;;41.11;11.54
10464;BME280;5279;42.048;24.638;2022-10-30T10:53:52;97812.81;;;41.39;11.17
10464;BME280;5279;42.048;24.638;2022-10-30T10:56:24;97809.34;;;41.42;11.47
10464;BME280;5279;42.048;24.638;2022-10-30T10:58:56;97807.16;;;41.48;10.71
10464;BME280;5279;42.048;24.638;2022-10-30T11:01:41;97808.63;;;41.66;10.43
10464;BME280;5279;42.048;24.638;2022-10-30T11:04:15;97800.28;;;41.04;10.29
10464;BME280;5279;42.048;24.638;2022-10-30T11:06:48;97793.84;;;41.74;10.38
10464;BME280;5279;42.048;24.638;2022-10-30T11:09:17;97791.00;;;41.62;9.92
10464;BME280;5279;42.048;24.638;2022-10-30T11:11:45;97778.22;;;40.69;10.49
10464;BME280;5279;42.048;24.638;2022-10-30T11:14:14;97769.56;;;40.33;10.78
10464;BME280;5279;42.048;24.638;2022-10-30T11:16:53;97763.81;;;41.47;10.12
10464;BME280;5279;42.048;24.638;2022-10-30T11:19:27;97772.19;;;41.79;9.89
10464;BME280;5279;42.048;24.638;2022-10-30T11:21:56;97769.75;;;42.23;9.71
10464;BME280;5279;42.048;24.638;2022-10-30T11:24:29;97769.69;;;43.04;9.26
10464;BME280;5279;42.048;24.638;2022-10-30T11:26:58;97766.66;;;43.49;9.29
10464;BME280;5279;42.048;24.638;2022-10-30T11:29:27;97762.72;;;43.93;9.76
10464;BME280;5279;42.048;24.638;2022-10-30T11:31:59;97750.66;;;44.83;9.79
10464;BME280;5279;42.048;24.638;2022-10-30T11:34:35;97751.91;;;45.01;9.18
10464;BME280;5279;42.048;24.638;2022-10-30T11:37:03;97759.75;;;45.88;9.27
10464;BME280;5279;42.048;24.638;2022-10-30T11:39:31;97755.06;;;44.84;9.07
10464;BME280;5279;42.048;24.638;2022-10-30T11:42:02;97748.88;;;46.06;8.53
10464;BME280;5279;42.048;24.638;2022-10-30T11:44:33;97749.47;;;45.54;8.99
10464;BME280;5279;42.048;24.638;2022-10-30T11:47:01;97750.31;;;45.96;8.98
10464;BME280;5279;42.048;24.638;2022-10-30T11:49:39;97745.41;;;46.12;8.05
10464;BME280;5279;42.048;24.638;2022-10-30T11:52:10;97726.97;;;44.46;8.30
10464;BME280;5279;42.048;24.638;2022-10-30T11:54:40;97737.00;;;42.92;9.08
10464;BME280;5279;42.048;24.638;2022-10-30T11:57:21;97722.16;;;42.88;9.33
10464;BME280;5279;42.048;24.638;2022-10-30T11:59:50;97718.94;;;43.54;9.25
10464;BME280;5279;42.048;24.638;2022-10-30T12:02:21;97725.00;;;43.72;8.64
10464;BME280;5279;42.048;24.638;2022-10-30T12:04:52;97719.34;;;43.68;8.99
10464;BME280;5279;42.048;24.638;2022-10-30T12:07:25;97725.34;;;44.45;8.66
10464;BME280;5279;42.048;24.638;2022-10-30T12:09:54;97721.47;;;44.02;8.77
10464;BME280;5279;42.048;24.638;2022-10-30T12:12:26;97719.22;;;43.92;8.42
10464;BME280;5279;42.048;24.638;2022-10-30T12:15:07;97714.34;;;43.89;9.25
10464;BME280;5279;42.048;24.638;2022-10-30T12:17:37;97710.94;;;43.96;9.39
10464;BME280;5279;42.048;24.638;2022-10-30T12:20:11;97710.75;;;44.36;9.17
10464;BME280;5279;42.048;24.638;2022-10-30T12:22:39;97703.13;;;44.83;9.94
10464;BME280;5279;42.048;24.638;2022-10-30T12:25:21;97713.19;;;45.80;8.93
10464;BME280;5279;42.048;24.638;2022-10-30T12:27:49;97706.72;;;45.38;8.69
10464;BME280;5279;42.048;24.638;2022-10-30T12:30:18;97702.13;;;45.10;8.28
10464;BME280;5279;42.048;24.638;2022-10-30T12:32:49;97712.59;;;45.52;8.58
10464;BME280;5279;42.048;24.638;2022-10-30T12:35:33;97708.78;;;45.60;8.23
10464;BME280;5279;42.048;24.638;2022-10-30T12:38:05;97703.38;;;45.51;8.11
10464;BME280;5279;42.048;24.638;2022-10-30T12:40:37;97694.41;;;45.04;8.30
10464;BME280;5279;42.048;24.638;2022-10-30T12:43:14;97693.38;;;44.11;8.73
10464;BME280;5279;42.048;24.638;2022-10-30T12:45:44;97697.72;;;43.65;9.18
10464;BME280;5279;42.048;24.638;2022-10-30T12:48:17;97700.09;;;43.94;8.80
10464;BME280;5279;42.048;24.638;2022-10-30T12:50:56;97689.81;;;44.61;8.93
10464;BME280;5279;42.048;24.638;2022-10-30T12:53:35;97691.72;;;44.57;8.67
10464;BME280;5279;42.048;24.638;2022-10-30T12:56:07;97693.47;;;44.15;8.64
10464;BME280;5279;42.048;24.638;2022-10-30T12:58:40;97693.25;;;43.21;9.29
10464;BME280;5279;42.048;24.638;2022-10-30T13:01:13;97689.59;;;42.92;9.66
10464;BME280;5279;42.048;24.638;2022-10-30T13:03:47;97687.28;;;41.85;10.08
10464;BME280;5279;42.048;24.638;2022-10-30T13:06:20;97677.81;;;42.59;9.89
10464;BME280;5279;42.048;24.638;2022-10-30T13:09:01;97678.69;;;42.87;10.37
10464;BME280;5279;42.048;24.638;2022-10-30T13:11:36;97681.19;;;43.17;9.84
10464;BME280;5279;42.048;24.638;2022-10-30T13:14:10;97676.59;;;43.80;9.76
10464;BME280;5279;42.048;24.638;2022-10-30T13:16:38;97673.44;;;43.81;9.45
10464;BME280;5279;42.048;24.638;2022-10-30T13:19:10;97679.88;;;44.48;9.33